Time;durP1;ratioP1;P1;durP2;ratioP2;P2;SDS_P1;SDS_P2;PMS_P1;PMS_P2;Temp;Humidity;BMP_temperature;BMP_pressure;BME280_temperature;BME280_humidity;BME280_pressure;Samples;Min_cycle;Max_cycle;Signal;HPM_P1;HPM_P2
2023/09/14 00:01:03;;;;;;;7.20;2.97;;;;;;;12.70;100.00;102140.88;5007968;28;20104;-79
2023/09/14 00:03:30;;;;;;;9.38;3.22;;;;;;;12.66;100.00;102141.81;5006400;28;20046;-80
2023/09/14 00:05:57;;;;;;;6.63;2.80;;;;;;;12.61;100.00;102141.06;5016244;28;20038;-80
2023/09/14 00:08:29;;;;;;;10.27;3.20;;;;;;;12.60;100.00;102140.16;5007630;28;20042;-80
2023/09/14 00:11:01;;;;;;;13.18;2.80;;;;;;;12.59;100.00;102146.34;5024002;28;20121;-80
2023/09/14 00:13:29;;;;;;;8.65;2.95;;;;;;;12.58;100.00;102145.50;5005235;28;20049;-81
2023/09/14 00:15:56;;;;;;;6.30;2.67;;;;;;;12.58;100.00;102142.84;5005503;28;20485;-80
2023/09/14 00:18:24;;;;;;;12.48;3.22;;;;;;;12.57;100.00;102146.38;5021398;28;20117;-81
2023/09/14 00:20:53;;;;;;;11.30;2.95;;;;;;;12.62;100.00;102141.03;5008270;28;20032;-81
2023/09/14 00:23:21;;;;;;;7.97;2.63;;;;;;;12.67;100.00;102146.22;5005123;28;20121;-81
2023/09/14 00:25:49;;;;;;;9.88;2.88;;;;;;;12.71;100.00;102137.34;5021423;28;20050;-81
2023/09/14 00:28:17;;;;;;;8.73;3.00;;;;;;;12.77;100.00;102142.50;5023886;28;20116;-80
2023/09/14 00:30:44;;;;;;;7.50;3.05;;;;;;;12.80;100.00;102146.88;5006522;28;20064;-81
2023/09/14 00:33:11;;;;;;;6.38;2.78;;;;;;;12.81;100.00;102135.38;5007349;28;20137;-80
2023/09/14 00:35:38;;;;;;;8.98;3.08;;;;;;;12.81;100.00;102132.72;5021971;28;20052;-80
2023/09/14 00:38:05;;;;;;;9.05;2.85;;;;;;;12.81;100.00;102136.28;5006773;28;20180;-80
2023/09/14 00:40:33;;;;;;;9.55;3.20;;;;;;;12.81;100.00;102128.34;5007677;28;20042;-80
2023/09/14 00:43:00;;;;;;;8.55;3.05;;;;;;;12.79;100.00;102131.88;5005873;28;20125;-80
2023/09/14 00:45:27;;;;;;;9.20;3.08;;;;;;;12.79;100.00;102129.25;5005888;28;20061;-82
2023/09/14 00:47:57;;;;;;;8.43;3.08;;;;;;;12.76;100.00;102135.47;5020725;28;20041;-79
2023/09/14 00:50:26;;;;;;;9.20;3.00;;;;;;;12.77;100.00;102133.72;5003904;28;20493;-80
2023/09/14 00:53:03;;;;;;;10.20;3.05;;;;;;;12.77;100.00;102129.28;4981731;28;20133;-80
2023/09/14 00:55:31;;;;;;;7.50;2.92;;;;;;;12.78;100.00;102130.13;5006279;28;20046;-80
2023/09/14 00:57:59;;;;;;;9.07;2.85;;;;;;;12.76;100.00;102135.47;5006975;28;20046;-81
2023/09/14 01:00:27;;;;;;;10.95;2.90;;;;;;;12.77;100.00;102137.22;5019968;28;20124;-80
2023/09/14 01:02:56;;;;;;;9.05;2.80;;;;;;;12.79;100.00;102140.72;5002961;28;20050;-81
2023/09/14 01:05:30;;;;;;;9.00;3.38;;;;;;;12.83;100.00;102141.53;5035728;28;20042;-80
2023/09/14 01:07:59;;;;;;;11.10;2.95;;;;;;;12.83;100.00;102141.53;5016309;28;20045;-80
2023/09/14 01:10:26;;;;;;;9.40;3.28;;;;;;;12.82;100.00;102137.13;5006192;28;20040;-79
2023/09/14 01:12:57;;;;;;;11.68;3.40;;;;;;;12.81;100.00;102136.28;5006576;28;20030;-79
2023/09/14 01:15:54;;;;;;;9.77;3.55;;;;;;;12.82;100.00;102137.13;5004534;28;20061;-79
2023/09/14 01:18:57;;;;;;;12.27;3.30;;;;;;;12.83;100.00;102142.38;5006280;28;20568;-79
2023/09/14 01:21:54;;;;;;;11.52;3.28;;;;;;;12.86;100.00;102137.03;5003108;28;20124;-80
2023/09/14 01:24:43;;;;;;;11.98;3.30;;;;;;;12.93;100.00;102134.25;5003238;28;20137;-80
2023/09/14 01:27:11;;;;;;;8.30;3.03;;;;;;;12.95;100.00;102136.00;5020172;28;20050;-79
2023/09/14 01:29:40;;;;;;;8.23;3.10;;;;;;;12.95;100.00;102133.34;5004193;28;20140;-80
2023/09/14 01:32:07;;;;;;;10.68;3.45;;;;;;;12.96;100.00;102139.50;5030797;28;20046;-79
2023/09/14 01:34:35;;;;;;;9.82;3.47;;;;;;;12.93;100.00;102137.78;5003787;28;20038;-80
2023/09/14 01:37:04;;;;;;;14.65;3.30;;;;;;;12.94;100.00;102134.25;5005496;28;20188;-80
2023/09/14 01:39:34;;;;;;;11.25;3.25;;;;;;;12.97;100.00;102134.16;5004756;28;20135;-80
2023/09/14 01:42:03;;;;;;;7.68;2.80;;;;;;;12.99;100.00;102135.00;5003642;28;20069;-81
2023/09/14 01:44:31;;;;;;;9.13;3.05;;;;;;;13.02;100.00;102131.47;5019666;28;20547;-80
2023/09/14 01:47:00;;;;;;;10.70;3.50;;;;;;;13.01;100.00;102125.28;5005015;28;20041;-81
2023/09/14 01:49:28;;;;;;;9.00;3.05;;;;;;;13.00;100.00;102122.66;5012654;28;20057;-81
2023/09/14 01:51:56;;;;;;;10.52;3.25;;;;;;;13.01;100.00;102129.72;5002485;28;20064;-80
2023/09/14 01:54:23;;;;;;;9.52;3.08;;;;;;;12.99;100.00;102127.06;5004030;28;20438;-80
2023/09/14 01:56:50;;;;;;;11.45;3.47;;;;;;;12.97;100.00;102135.97;5016760;28;20048;-79
2023/09/14 01:59:17;;;;;;;13.65;3.47;;;;;;;12.91;100.00;102114.91;5006168;28;20046;-80
2023/09/14 02:01:44;;;;;;;10.40;3.75;;;;;;;12.89;100.00;102130.81;5000634;28;20038;-80
2023/09/14 02:04:12;;;;;;;8.43;2.85;;;;;;;12.87;100.00;102124.69;4984597;28;20045;-80
2023/09/14 02:06:39;;;;;;;9.23;3.15;;;;;;;12.91;100.00;102128.16;5002730;28;20104;-80
2023/09/14 02:09:06;;;;;;;8.40;3.05;;;;;;;12.91;100.00;102125.50;5001273;28;20042;-78
2023/09/14 02:11:33;;;;;;;8.93;3.67;;;;;;;12.91;100.00;102121.06;5005046;28;20042;-78
2023/09/14 02:14:00;;;;;;;10.93;3.22;;;;;;;12.90;100.00;102124.63;5007555;28;20050;-78
2023/09/14 02:16:27;;;;;;;12.50;3.53;;;;;;;12.87;100.00;102122.91;5004520;28;20052;-78
2023/09/14 02:18:54;;;;;;;7.78;3.35;;;;;;;12.85;100.00;102118.56;5003105;28;20581;-78
2023/09/14 02:21:22;;;;;;;8.05;3.75;;;;;;;12.82;100.00;102115.97;5004587;28;20042;-81
2023/09/14 02:23:49;;;;;;;11.23;3.60;;;;;;;12.76;100.00;102116.94;5020105;28;20065;-83
2023/09/14 02:26:16;;;;;;;12.65;3.92;;;;;;;12.72;100.00;102118.78;5006010;28;20042;-81
2023/09/14 02:28:43;;;;;;;10.90;3.78;;;;;;;12.70;100.00;102119.72;5004343;28;20042;-82
2023/09/14 02:31:10;;;;;;;14.88;4.00;;;;;;;12.64;100.00;102120.69;4998660;28;20064;-81
2023/09/14 02:33:38;;;;;;;9.35;3.97;;;;;;;12.55;100.00;102124.38;5035693;28;20108;-79
2023/09/14 02:36:06;;;;;;;10.02;3.90;;;;;;;12.47;100.00;102120.13;5005472;28;20426;-79
2023/09/14 02:38:33;;;;;;;8.35;3.40;;;;;;;12.40;100.00;102120.22;5001365;28;20049;-79
2023/09/14 02:41:00;;;;;;;13.05;4.00;;;;;;;12.35;100.00;102129.16;5003909;28;20038;-79
2023/09/14 02:43:28;;;;;;;14.07;4.05;;;;;;;12.29;100.00;102127.47;5020369;28;20576;-82
2023/09/14 02:45:55;;;;;;;12.00;3.92;;;;;;;12.24;100.00;102124.91;5004585;28;20541;-82
2023/09/14 02:48:22;;;;;;;14.38;4.10;;;;;;;12.20;100.00;102122.34;5016042;28;20037;-81
2023/09/14 02:50:49;;;;;;;10.98;4.18;;;;;;;12.16;100.00;102118.03;5005632;28;20494;-83
2023/09/14 02:53:16;;;;;;;10.07;3.60;;;;;;;12.10;100.00;102111.06;5004785;28;20045;-81
2023/09/14 02:55:43;;;;;;;10.10;3.55;;;;;;;12.10;100.00;102117.22;5005481;28;20760;-81
2023/09/14 02:58:11;;;;;;;9.60;4.10;;;;;;;12.06;100.00;102120.78;5018350;28;20555;-81
2023/09/14 03:00:39;;;;;;;11.23;4.22;;;;;;;12.02;100.00;102112.94;4998365;28;20128;-82
2023/09/14 03:03:09;;;;;;;9.15;3.75;;;;;;;11.98;100.00;102119.19;5016399;28;20137;-82
2023/09/14 03:05:39;;;;;;;9.77;3.83;;;;;;;11.91;100.00;102113.94;5005134;28;20048;-82
2023/09/14 03:08:06;;;;;;;15.25;4.13;;;;;;;11.86;100.00;102112.28;5023187;28;20581;-78
2023/09/14 03:10:34;;;;;;;11.27;4.10;;;;;;;11.82;100.00;102119.38;5004630;28;20045;-78
2023/09/14 03:13:01;;;;;;;9.35;3.92;;;;;;;11.78;100.00;102118.56;5025532;28;20505;-78
2023/09/14 03:15:28;;;;;;;9.40;3.88;;;;;;;11.76;100.00;102116.84;4996811;28;20099;-79
2023/09/14 03:17:56;;;;;;;9.70;4.47;;;;;;;11.72;100.00;102120.41;5009041;28;20038;-78
2023/09/14 03:20:23;;;;;;;7.32;4.00;;;;;;;11.72;100.00;102128.34;5023386;28;20510;-81
2023/09/14 03:22:50;;;;;;;10.32;3.72;;;;;;;11.69;100.00;102126.63;4991548;28;20127;-81
2023/09/14 03:25:17;;;;;;;8.35;4.15;;;;;;;11.69;100.00;102123.13;4991976;28;20041;-81
2023/09/14 03:27:45;;;;;;;8.95;4.18;;;;;;;11.69;100.00;102129.25;5007837;28;20537;-81
2023/09/14 03:30:12;;;;;;;9.18;3.65;;;;;;;11.69;100.00;102128.41;5007020;28;20407;-81
2023/09/14 03:32:40;;;;;;;9.90;3.67;;;;;;;11.69;100.00;102131.91;5005793;28;20049;-83
2023/09/14 03:35:07;;;;;;;8.60;3.92;;;;;;;11.69;100.00;102128.41;5006549;28;20050;-83
2023/09/14 03:37:35;;;;;;;6.93;3.33;;;;;;;11.68;100.00;102127.50;5008965;28;20041;-83
2023/09/14 03:40:08;;;;;;;10.88;3.90;;;;;;;11.69;100.00;102131.03;5020975;28;20219;-84
2023/09/14 03:42:36;;;;;;;9.38;3.60;;;;;;;11.66;100.00;102131.94;5023303;28;20129;-83
2023/09/14 03:45:05;;;;;;;8.32;3.85;;;;;;;11.63;100.00;102127.59;5009093;28;20107;-83
2023/09/14 03:47:32;;;;;;;8.88;3.85;;;;;;;11.62;100.00;102132.91;4999748;28;20050;-83
2023/09/14 03:49:59;;;;;;;10.32;3.53;;;;;;;11.60;100.00;102132.91;5004602;28;20062;-82
2023/09/14 03:52:26;;;;;;;9.05;3.63;;;;;;;11.56;100.00;102128.56;5022890;28;20042;-82
2023/09/14 03:54:53;;;;;;;10.07;3.63;;;;;;;11.52;100.00;102137.41;5007818;28;20060;-83
2023/09/14 03:57:21;;;;;;;8.82;3.47;;;;;;;11.48;100.00;102125.16;4990543;28;20054;-84
2023/09/14 03:59:48;;;;;;;9.57;3.50;;;;;;;11.45;100.00;102130.47;5007847;28;20570;-83
2023/09/14 04:02:15;;;;;;;11.48;4.07;;;;;;;11.42;100.00;102134.03;5022508;28;20034;-85
2023/09/14 04:04:43;;;;;;;6.75;3.50;;;;;;;11.38;100.00;102126.19;5007135;28;20049;-84
2023/09/14 04:07:11;;;;;;;9.15;3.88;;;;;;;11.34;100.00;102130.63;5009237;28;20125;-84
2023/09/14 04:09:38;;;;;;;8.00;3.75;;;;;;;11.31;100.00;102135.94;5012627;28;20124;-84
2023/09/14 04:12:06;;;;;;;8.90;3.40;;;;;;;11.29;100.00;102135.94;5039689;28;20084;-84
2023/09/14 04:14:34;;;;;;;9.40;3.80;;;;;;;11.26;100.00;102140.41;5020697;28;20152;-83
2023/09/14 04:17:03;;;;;;;8.48;3.78;;;;;;;11.22;100.00;102136.06;5021493;28;20636;-80
2023/09/14 04:19:30;;;;;;;8.60;3.97;;;;;;;11.20;100.00;102133.41;5006520;28;20048;-79
2023/09/14 04:21:57;;;;;;;11.75;4.05;;;;;;;11.22;100.00;102126.38;5003530;28;20034;-82
2023/09/14 04:24:27;;;;;;;12.02;4.03;;;;;;;11.27;100.00;102127.19;5006983;28;20061;-82
2023/09/14 04:26:54;;;;;;;7.78;3.58;;;;;;;11.32;100.00;102130.63;5005501;28;20069;-80
2023/09/14 04:29:21;;;;;;;10.50;3.88;;;;;;;11.31;100.00;102128.03;5002481;28;20626;-81
2023/09/14 04:31:48;;;;;;;11.13;4.07;;;;;;;11.29;100.00;102129.81;5004789;28;20045;-81
2023/09/14 04:34:18;;;;;;;10.48;3.78;;;;;;;11.24;100.00;102131.66;5004730;28;20061;-81
2023/09/14 04:36:48;;;;;;;10.32;4.22;;;;;;;11.21;100.00;102129.88;5003807;28;20050;-78
2023/09/14 04:39:16;;;;;;;9.25;3.97;;;;;;;11.18;100.00;102129.94;4998967;28;20045;-78
2023/09/14 04:41:43;;;;;;;8.57;3.97;;;;;;;11.16;100.00;102129.94;5004939;28;20042;-75
2023/09/14 04:44:11;;;;;;;8.27;4.18;;;;;;;11.14;100.00;102131.72;5004747;28;20064;-75
2023/09/14 04:46:38;;;;;;;13.50;4.55;;;;;;;11.10;100.00;102130.03;5020585;28;20034;-75
2023/09/14 04:49:06;;;;;;;8.70;4.43;;;;;;;11.07;100.00;102124.78;5036303;28;20108;-74
2023/09/14 04:51:33;;;;;;;11.00;3.92;;;;;;;11.06;100.00;102125.69;4987552;28;20041;-74
2023/09/14 04:54:01;;;;;;;13.55;4.00;;;;;;;11.05;100.00;102126.56;5018957;28;20042;-74
2023/09/14 04:56:28;;;;;;;9.38;3.83;;;;;;;11.04;100.00;102127.44;5002570;28;20056;-75
2023/09/14 04:58:55;;;;;;;10.52;4.13;;;;;;;11.01;100.00;102133.66;5005558;28;20046;-73
2023/09/14 05:01:22;;;;;;;11.60;4.28;;;;;;;11.01;100.00;102136.28;5000150;28;20431;-74
2023/09/14 05:03:50;;;;;;;11.18;4.88;;;;;;;11.00;100.00;102137.16;5016826;28;20140;-73
2023/09/14 05:06:18;;;;;;;13.63;4.60;;;;;;;11.00;100.00;102137.16;5014437;28;20045;-68
2023/09/14 05:08:45;;;;;;;10.90;4.43;;;;;;;11.00;100.00;102136.31;4997553;28;20319;-73
2023/09/14 05:11:13;;;;;;;11.35;4.30;;;;;;;11.00;100.00;102144.22;4997759;28;20107;-74
2023/09/14 05:13:40;;;;;;;11.73;4.28;;;;;;;10.99;100.00;102145.97;5001548;28;20565;-73
2023/09/14 05:16:10;;;;;;;15.90;4.88;;;;;;;10.98;100.00;102138.09;4978888;28;20373;-72
2023/09/14 05:18:38;;;;;;;13.25;4.32;;;;;;;10.97;100.00;102142.50;4996602;28;20560;-73
2023/09/14 05:21:05;;;;;;;12.23;4.68;;;;;;;11.00;100.00;102145.09;4998681;28;20654;-75
2023/09/14 05:23:32;;;;;;;10.35;4.50;;;;;;;11.02;100.00;102142.44;5000530;28;20445;-75
2023/09/14 05:25:59;;;;;;;12.85;4.50;;;;;;;11.08;100.00;102147.66;5005642;28;20057;-75
2023/09/14 05:28:27;;;;;;;13.95;4.82;;;;;;;11.17;100.00;102144.91;5016903;28;20104;-75
2023/09/14 05:30:55;;;;;;;8.63;4.50;;;;;;;11.27;100.00;102150.06;5017502;28;20108;-76
2023/09/14 05:33:22;;;;;;;14.52;4.85;;;;;;;11.35;100.00;102150.84;5013445;28;20131;-75
2023/09/14 05:35:51;;;;;;;10.80;4.30;;;;;;;11.44;100.00;102152.50;5033389;28;20046;-75
2023/09/14 05:38:18;;;;;;;9.40;4.20;;;;;;;11.47;100.00;102149.81;5002372;28;20068;-75
2023/09/14 05:40:46;;;;;;;11.32;4.50;;;;;;;11.53;100.00;102157.66;5002294;28;20096;-75
2023/09/14 05:43:13;;;;;;;12.35;4.80;;;;;;;11.56;100.00;102157.63;5003569;28;20621;-75
2023/09/14 05:45:41;;;;;;;11.90;5.53;;;;;;;11.59;100.00;102156.69;4999574;28;20053;-75
2023/09/14 05:48:08;;;;;;;11.80;4.90;;;;;;;11.61;100.00;102158.41;4992626;28;20042;-75
2023/09/14 05:50:36;;;;;;;9.15;4.90;;;;;;;11.66;100.00;102158.34;4988131;28;20173;-76
2023/09/14 05:53:04;;;;;;;12.15;5.40;;;;;;;11.70;100.00;102160.06;4998843;28;20116;-75
2023/09/14 05:55:32;;;;;;;9.10;4.85;;;;;;;11.75;100.00;102163.50;4998344;28;20046;-75
2023/09/14 05:58:00;;;;;;;12.60;5.63;;;;;;;11.78;100.00;102162.59;5013753;28;20062;-75
2023/09/14 06:00:27;;;;;;;12.38;5.80;;;;;;;11.81;100.00;102170.47;5001193;28;20046;-75
2023/09/14 06:02:57;;;;;;;12.95;6.00;;;;;;;11.85;100.00;102163.41;4993107;28;20046;-76
2023/09/14 06:05:25;;;;;;;15.63;6.05;;;;;;;11.89;100.00;102165.09;5011665;28;20441;-75
2023/09/14 06:07:53;;;;;;;12.80;5.70;;;;;;;11.94;100.00;102166.75;5005552;28;20061;-76
2023/09/14 06:10:23;;;;;;;12.27;6.35;;;;;;;11.99;100.00;102165.88;5008024;28;20042;-75
2023/09/14 06:12:51;;;;;;;10.80;6.28;;;;;;;12.04;100.00;102164.91;5000510;28;20122;-75
2023/09/14 06:15:20;;;;;;;13.88;7.10;;;;;;;12.09;100.00;102170.13;4985856;28;20327;-75
2023/09/14 06:17:47;;;;;;;13.25;6.35;;;;;;;12.13;100.00;102166.50;5003511;28;20069;-75
2023/09/14 06:20:15;;;;;;;16.08;6.70;;;;;;;12.26;100.00;102173.34;5010222;28;20464;-75
2023/09/14 06:22:42;;;;;;;15.40;6.35;;;;;;;12.38;100.00;102171.41;5041922;28;20041;-75
2023/09/14 06:25:10;;;;;;;12.07;5.63;;;;;;;12.50;100.00;102168.56;4992404;28;20050;-75
2023/09/14 06:27:37;;;;;;;14.27;5.22;;;;;;;12.66;100.00;102178.88;5005340;28;20624;-75
2023/09/14 06:30:06;;;;;;;12.77;4.88;;;;;;;12.73;100.00;102168.16;5034316;28;20145;-75
2023/09/14 06:32:33;;;;;;;10.23;4.65;;;;;;;12.83;100.00;102168.84;5007539;28;20053;-75
2023/09/14 06:35:00;;;;;;;9.80;4.90;;;;;;;12.94;100.00;102173.94;5024434;28;20578;-75
2023/09/14 06:37:27;;;;;;;14.10;5.20;;;;;;;13.03;100.00;102171.13;5042421;28;20533;-75
2023/09/14 06:39:54;;;;;;;12.20;4.63;;;;;;;13.13;100.00;102177.09;5023963;28;20052;-76
2023/09/14 06:42:21;;;;;;;8.85;4.40;;;;;;;13.25;100.00;102178.66;5025574;28;20099;-75
2023/09/14 06:44:49;;;;;;;9.60;4.38;;;;;;;13.29;100.00;102177.66;5041003;28;20049;-75
2023/09/14 06:47:17;;;;;;;12.00;4.80;;;;;;;13.38;100.00;102179.25;5025320;28;20115;-75
2023/09/14 06:49:44;;;;;;;9.57;4.10;;;;;;;13.53;100.00;102171.94;5026304;28;20060;-76
2023/09/14 06:52:11;;;;;;;13.65;4.50;;;;;;;13.65;100.00;102183.13;5026772;28;20053;-75
2023/09/14 06:54:38;;;;;;;11.27;4.20;;;;;;;13.77;100.00;102178.47;5026089;28;20716;-75
2023/09/14 06:57:05;;;;;;;13.75;4.45;;;;;;;13.89;100.00;102178.16;5006894;28;20042;-75
2023/09/14 06:59:34;;;;;;;9.98;4.07;;;;;;;14.02;100.00;102176.13;5006129;28;20048;-75
2023/09/14 07:02:02;;;;;;;10.63;4.25;;;;;;;14.13;100.00;102176.75;5005398;28;20045;-76
2023/09/14 07:04:30;;;;;;;12.95;4.18;;;;;;;14.21;100.00;102173.88;5001262;28;20037;-75
2023/09/14 07:06:57;;;;;;;9.77;4.45;;;;;;;14.31;100.00;102179.84;5005421;28;20050;-76
2023/09/14 07:09:24;;;;;;;12.15;4.90;;;;;;;14.39;100.00;102177.03;5005950;28;20488;-75
2023/09/14 07:11:52;;;;;;;14.10;4.90;;;;;;;14.44;100.00;102176.00;5006004;28;20068;-75
2023/09/14 07:14:19;;;;;;;10.48;4.90;;;;;;;14.48;100.00;102183.84;5006977;28;20073;-75
2023/09/14 07:16:46;;;;;;;13.05;5.22;;;;;;;14.50;99.84;102182.03;5006483;28;20069;-75
2023/09/14 07:19:13;;;;;;;11.48;4.85;;;;;;;14.56;99.86;102187.19;5006547;28;20217;-75
2023/09/14 07:21:41;;;;;;;13.30;4.85;;;;;;;14.62;99.47;102192.34;5021651;28;20042;-75
2023/09/14 07:24:08;;;;;;;9.68;5.00;;;;;;;14.71;99.43;102189.47;5006621;28;20471;-75
2023/09/14 07:26:36;;;;;;;13.43;5.18;;;;;;;14.84;98.81;102184.72;5019683;28;20338;-75
2023/09/14 07:29:03;;;;;;;10.98;4.80;;;;;;;14.92;98.74;102187.16;4988686;28;20529;-75
2023/09/14 07:31:34;;;;;;;20.17;4.82;;;;;;;15.03;98.39;102184.22;5004450;28;20038;-75
2023/09/14 07:34:02;;;;;;;11.18;4.70;;;;;;;15.15;98.37;102194.50;5020876;28;20108;-75
2023/09/14 07:36:29;;;;;;;12.55;5.07;;;;;;;15.30;97.70;102197.66;5006249;28;20524;-75
2023/09/14 07:38:56;;;;;;;10.90;4.88;;;;;;;15.44;97.22;102191.94;5004928;28;20120;-75
2023/09/14 07:41:26;;;;;;;10.68;5.05;;;;;;;15.58;96.81;102192.38;5005175;28;20038;-75
2023/09/14 07:43:54;;;;;;;10.73;4.63;;;;;;;15.71;96.79;102194.66;5006100;28;20046;-75
2023/09/14 07:46:21;;;;;;;8.00;4.43;;;;;;;15.86;97.09;102201.34;5005668;28;20096;-75
2023/09/14 07:48:48;;;;;;;10.60;4.50;;;;;;;15.99;95.60;102192.06;5021648;28;20046;-75
2023/09/14 07:51:15;;;;;;;13.98;4.60;;;;;;;16.10;94.97;102205.00;5007365;28;20533;-75
2023/09/14 07:53:42;;;;;;;17.50;4.50;;;;;;;16.21;94.82;102197.56;5009302;28;20100;-75
2023/09/14 07:56:09;;;;;;;12.10;4.32;;;;;;;16.34;94.23;102202.47;5006487;28;20104;-75
2023/09/14 07:58:36;;;;;;;13.52;4.72;;;;;;;16.49;94.95;102206.41;5005707;28;20153;-75
2023/09/14 08:01:04;;;;;;;10.95;4.15;;;;;;;16.65;94.29;102207.63;5009644;28;20058;-75
2023/09/14 08:03:31;;;;;;;13.43;4.50;;;;;;;16.77;93.94;102204.56;5015908;28;20099;-75
2023/09/14 08:05:58;;;;;;;11.75;4.03;;;;;;;16.91;93.43;102211.19;5014358;28;20052;-75
2023/09/14 08:08:25;;;;;;;15.75;4.90;;;;;;;17.01;92.65;102209.97;5009460;28;20569;-75
2023/09/14 08:10:55;;;;;;;13.40;4.85;;;;;;;17.11;92.55;102217.63;5009022;28;20447;-75
2023/09/14 08:13:23;;;;;;;12.10;4.70;;;;;;;17.22;92.76;102212.78;5009566;28;20575;-75
2023/09/14 08:15:50;;;;;;;9.65;4.30;;;;;;;17.30;92.52;102213.38;5009073;28;20140;-75
2023/09/14 08:18:20;;;;;;;15.70;4.78;;;;;;;17.39;91.93;102212.19;5024266;28;20045;-76
2023/09/14 08:20:47;;;;;;;16.27;4.60;;;;;;;17.41;90.92;102212.09;5024686;28;20137;-75
2023/09/14 08:23:15;;;;;;;10.32;4.57;;;;;;;17.47;91.27;102209.19;5008741;28;20045;-75
2023/09/14 08:25:47;;;;;;;19.25;5.53;;;;;;;17.55;90.73;102201.78;5022412;28;20510;-75
2023/09/14 08:28:19;;;;;;;15.60;5.30;;;;;;;17.60;90.18;102206.97;5008236;28;20053;-75
2023/09/14 08:30:48;;;;;;;15.18;5.50;;;;;;;17.66;89.75;102199.56;5008327;28;20045;-75
2023/09/14 08:33:18;;;;;;;11.70;4.90;;;;;;;17.78;89.59;102203.56;5024678;28;20053;-75
2023/09/14 08:35:47;;;;;;;17.00;5.68;;;;;;;17.90;88.74;102204.88;5009533;28;20553;-75
2023/09/14 08:38:14;;;;;;;31.95;6.47;;;;;;;18.02;88.55;102206.22;4991255;28;20061;-75
2023/09/14 08:40:43;;;;;;;16.08;5.60;;;;;;;18.13;87.82;102200.44;4991214;28;20042;-75
2023/09/14 08:43:14;;;;;;;15.27;5.20;;;;;;;18.15;87.32;102203.94;5008436;28;20125;-75
2023/09/14 08:45:43;;;;;;;13.13;4.75;;;;;;;18.20;87.53;102203.75;5009473;28;20042;-75
2023/09/14 08:48:15;;;;;;;14.80;4.38;;;;;;;18.25;85.69;102215.09;5008841;28;20502;-75
2023/09/14 08:50:43;;;;;;;19.20;5.53;;;;;;;18.27;85.41;102213.22;5008806;28;20621;-75
2023/09/14 08:53:16;;;;;;;13.27;4.45;;;;;;;18.31;84.79;102207.69;5008984;28;20479;-75
2023/09/14 08:55:43;;;;;;;17.52;5.03;;;;;;;18.31;84.82;102210.38;5013212;28;20039;-75
2023/09/14 08:58:12;;;;;;;14.07;4.90;;;;;;;18.31;84.20;102215.72;5006928;28;20038;-75
2023/09/14 09:00:42;;;;;;;17.13;4.78;;;;;;;18.29;84.42;102214.03;5009368;28;20457;-75
2023/09/14 09:03:10;;;;;;;10.93;4.38;;;;;;;18.31;84.69;102206.84;5007298;28;20128;-75
2023/09/14 09:05:37;;;;;;;15.30;4.80;;;;;;;18.34;83.52;102214.72;5008366;28;20046;-75
2023/09/14 09:08:06;;;;;;;10.27;3.70;;;;;;;18.40;83.11;102200.25;5023484;28;20042;-75
2023/09/14 09:10:34;;;;;;;10.48;4.22;;;;;;;18.50;83.23;102203.41;5008335;28;20603;-75
2023/09/14 09:13:04;;;;;;;12.38;4.40;;;;;;;18.56;82.17;102205.81;5007334;28;20044;-75
2023/09/14 09:15:34;;;;;;;12.18;4.38;;;;;;;18.63;81.65;102204.59;5009011;28;20117;-75
2023/09/14 09:18:10;;;;;;;12.68;4.00;;;;;;;18.73;81.86;102200.59;5007143;28;20489;-75
2023/09/14 09:20:40;;;;;;;7.95;3.80;;;;;;;18.83;81.52;102200.19;5023515;28;20066;-75
2023/09/14 09:23:08;;;;;;;15.07;4.78;;;;;;;18.92;79.98;102207.84;5023747;28;20038;-76
2023/09/14 09:25:52;;;;;;;9.55;4.80;;;;;;;19.04;78.13;102204.63;5017172;28;20048;-75
2023/09/14 09:28:28;;;;;;;7.33;4.40;;;;;;;19.18;79.02;102198.66;5016013;28;20042;-75
2023/09/14 09:30:55;;;;;;;10.18;5.32;;;;;;;19.30;79.26;102196.38;5023011;28;20880;-75
2023/09/14 09:33:37;;;;;;;16.70;6.10;;;;;;;19.30;79.07;102196.38;5006788;28;20037;-75
2023/09/14 09:36:16;;;;;;;11.10;5.22;;;;;;;19.19;78.36;102196.88;5005610;28;20061;-75
2023/09/14 09:38:45;;;;;;;13.23;6.13;;;;;;;19.23;78.85;102199.31;5039480;28;20050;-75
2023/09/14 09:41:15;;;;;;;11.90;7.25;;;;;;;19.32;77.32;102194.50;5007674;28;20050;-75
2023/09/14 09:43:44;;;;;;;12.55;5.68;;;;;;;19.29;76.45;102192.84;5006686;28;20046;-75
2023/09/14 09:46:16;;;;;;;12.68;6.30;;;;;;;19.25;76.95;102199.25;5023173;28;20049;-75
2023/09/14 09:48:44;;;;;;;12.85;5.20;;;;;;;19.19;78.03;102189.69;5007570;28;20046;-75
2023/09/14 09:51:12;;;;;;;9.98;4.72;;;;;;;19.13;78.98;102192.66;5002845;28;20572;-75
2023/09/14 09:54:06;;;;;;;10.50;4.72;;;;;;;19.03;78.59;102194.00;5021273;28;20449;-75
2023/09/14 09:56:35;;;;;;;;;;;;;;;18.96;79.01;102196.09;5004633;28;20053;-75
2023/09/14 09:59:09;;;;;;;8.48;4.50;;;;;;;18.98;78.83;102185.31;5020035;28;19925;-75
2023/09/14 10:01:38;;;;;;;9.00;4.45;;;;;;;18.87;77.48;102189.31;5021429;28;20608;-75
2023/09/14 10:04:13;;;;;;;7.82;4.30;;;;;;;18.83;76.58;102193.06;5013424;28;20557;-75
2023/09/14 10:06:48;;;;;;;8.25;4.22;;;;;;;18.87;76.49;102188.44;5008201;28;20083;-75
2023/09/14 10:09:15;;;;;;;7.93;4.82;;;;;;;18.94;76.51;102187.25;5007239;28;20046;-75
2023/09/14 10:11:46;;;;;;;9.45;4.65;;;;;;;19.12;77.09;102192.75;5007271;28;20644;-75
2023/09/14 10:14:18;;;;;;;10.23;4.55;;;;;;;19.38;76.51;102184.38;5006176;28;20104;-75
2023/09/14 10:16:50;;;;;;;6.28;3.55;;;;;;;19.67;75.96;102187.50;5006177;28;20037;-76
2023/09/14 10:19:20;;;;;;;7.65;3.60;;;;;;;19.96;76.66;102185.25;5001133;28;20061;-76
2023/09/14 10:21:52;;;;;;;5.72;2.80;;;;;;;20.09;76.73;102179.31;5005352;28;20061;-77
2023/09/14 10:24:21;;;;;;;11.02;3.40;;;;;;;20.27;74.26;102182.88;5018336;28;20674;-76
2023/09/14 10:26:49;;;;;;;5.93;3.20;;;;;;;20.41;73.35;102174.16;5020823;28;20053;-76
2023/09/14 10:29:20;;;;;;;5.18;3.03;;;;;;;20.28;72.52;102177.44;5006168;28;20052;-76
2023/09/14 10:31:53;;;;;;;5.15;3.15;;;;;;;20.15;72.91;102181.66;5005965;28;20132;-77
2023/09/14 10:34:21;;;;;;;10.27;3.58;;;;;;;20.01;71.55;102177.88;5024438;28;20041;-76
2023/09/14 10:36:51;;;;;;;7.10;3.70;;;;;;;20.05;71.44;102175.03;5041424;28;20111;-76
2023/09/14 10:39:22;;;;;;;5.43;3.05;;;;;;;20.25;70.99;102169.56;5041211;28;20056;-76
2023/09/14 10:41:49;;;;;;;6.38;3.33;;;;;;;20.50;71.57;102165.63;5012271;28;20054;-76
2023/09/14 10:44:17;;;;;;;9.38;3.80;;;;;;;20.73;71.61;102174.28;4986622;28;20050;-76
2023/09/14 10:46:48;;;;;;;5.50;3.25;;;;;;;20.99;69.74;102162.22;4987853;28;20303;-77
2023/09/14 10:49:16;;;;;;;7.30;2.55;;;;;;;21.26;68.19;102167.88;4989002;28;20116;-76
2023/09/14 10:51:45;;;;;;;4.57;2.60;;;;;;;21.50;66.83;102159.44;5020684;28;20321;-77
2023/09/14 10:54:13;;;;;;;5.53;2.45;;;;;;;21.72;64.97;102160.94;5005933;28;20042;-76
2023/09/14 10:56:40;;;;;;;6.00;3.00;;;;;;;21.90;65.39;102155.47;5004923;28;20034;-76
2023/09/14 10:59:08;;;;;;;7.03;2.70;;;;;;;22.08;63.17;102153.53;5004986;28;20132;-76
2023/09/14 11:01:54;;;;;;;5.13;2.60;;;;;;;22.27;61.16;102146.13;5006538;28;20203;-76
2023/09/14 11:04:21;;;;;;;6.55;2.40;;;;;;;22.38;59.82;102144.63;5005873;28;20100;-76
2023/09/14 11:06:52;;;;;;;5.70;2.30;;;;;;;22.47;59.81;102152.16;5004817;28;20574;-76
2023/09/14 11:09:23;;;;;;;4.25;2.10;;;;;;;22.53;58.66;102151.81;5021642;28;20050;-75
2023/09/14 11:11:52;;;;;;;5.63;2.42;;;;;;;22.55;57.23;102149.03;5004338;28;20107;-76
2023/09/14 11:14:24;;;;;;;5.47;2.20;;;;;;;22.60;58.38;102147.78;4995997;28;20465;-76
2023/09/14 11:16:57;;;;;;;4.90;2.40;;;;;;;22.61;57.47;102152.22;5005034;28;20049;-76
2023/09/14 11:19:34;;;;;;;14.10;2.90;;;;;;;22.70;57.68;102144.53;5007086;28;20050;-76
2023/09/14 11:22:25;;;;;;;6.95;2.50;;;;;;;22.88;57.88;102151.47;5018752;28;20080;-76
2023/09/14 11:24:54;;;;;;;66.27;7.80;;;;;;;23.03;57.27;102143.41;5007902;28;20050;-76